Time;durP1;ratioP1;P1;durP2;ratioP2;P2;SDS_P1;SDS_P2;PMS_P1;PMS_P2;Temp;Humidity;BMP_temperature;BMP_pressure;BME280_temperature;BME280_humidity;BME280_pressure;Samples;Min_cycle;Max_cycle;Signal;HPM_P1;HPM_P2
2024/04/26 05:33:19;;;;;;;55.20;31.62;;;;;;;3.85;96.93;99846.06;1868367;76;34699;-56
2024/04/26 05:35:45;;;;;;;52.80;29.77;;;;;;;3.97;96.66;99843.84;1824523;77;25514;-57
2024/04/26 05:38:11;;;;;;;49.00;30.77;;;;;;;4.16;96.42;99842.67;1824482;78;27470;-55
2024/04/26 05:40:37;;;;;;;42.33;26.95;;;;;;;4.38;96.09;99847.62;1824362;78;25357;-57
2024/04/26 05:43:05;;;;;;;42.03;26.10;;;;;;;4.61;95.69;99846.09;1824466;78;25563;-57
2024/04/26 05:45:31;;;;;;;44.88;25.57;;;;;;;4.83;94.93;99845.65;1824404;78;25511;-57
2024/04/26 05:47:58;;;;;;;34.63;22.70;;;;;;;5.05;94.44;99841.16;1824507;78;25526;-57
2024/04/26 05:50:24;;;;;;;31.50;20.60;;;;;;;5.28;93.66;99842.84;1824473;78;27495;-57
2024/04/26 05:52:50;;;;;;;33.58;22.50;;;;;;;5.53;93.69;99850.33;1824299;78;25343;-57
2024/04/26 05:55:16;;;;;;;27.58;19.82;;;;;;;5.74;93.51;99848.23;1824455;78;25698;-58
2024/04/26 05:57:44;;;;;;;27.98;19.07;;;;;;;5.99;93.17;99855.16;1824357;78;26058;-58
2024/04/26 06:00:12;;;;;;;26.77;17.82;;;;;;;6.18;92.14;99859.23;1824461;78;25545;-57
2024/04/26 06:02:38;;;;;;;32.08;19.48;;;;;;;6.42;91.73;99859.67;1824447;78;28221;-57
2024/04/26 06:05:11;;;;;;;23.85;15.80;;;;;;;6.65;92.15;99860.12;1824338;78;25693;-55
2024/04/26 06:07:36;;;;;;;30.50;18.23;;;;;;;6.88;91.22;99859.77;1823929;78;25545;-56
2024/04/26 06:10:08;;;;;;;25.00;16.70;;;;;;;7.13;91.25;99863.66;1824374;78;25520;-56
2024/04/26 06:12:34;;;;;;;22.82;15.75;;;;;;;7.36;90.12;99865.94;1824464;78;25534;-56
2024/04/26 06:15:00;;;;;;;22.35;15.20;;;;;;;7.61;89.18;99872.71;1824425;78;27512;-58
2024/04/26 06:17:27;;;;;;;22.93;14.45;;;;;;;7.83;88.98;99867.44;1824320;78;26083;-57
2024/04/26 06:19:56;;;;;;;22.20;14.80;;;;;;;8.00;86.76;99869.52;1824546;78;25567;-56
2024/04/26 06:22:23;;;;;;;20.68;13.72;;;;;;;8.21;85.92;99878.50;1824429;78;25533;-58
2024/04/26 06:24:49;;;;;;;22.95;14.43;;;;;;;8.45;86.90;99879.61;1824440;78;25418;-57
2024/04/26 06:27:15;;;;;;;26.40;14.83;;;;;;;8.76;87.50;99880.24;1824436;78;27363;-58
2024/04/26 06:29:41;;;;;;;22.85;12.98;;;;;;;9.02;86.32;99882.31;1824413;78;26197;-58
2024/04/26 06:32:09;;;;;;;20.50;13.40;;;;;;;9.22;82.83;99881.00;1826773;78;25567;-56
2024/04/26 06:34:37;;;;;;;20.65;12.53;;;;;;;9.42;82.46;99883.73;1830578;78;25565;-58
2024/04/26 06:37:07;;;;;;;20.92;13.15;;;;;;;9.62;79.06;99886.41;1830550;78;25424;-58
2024/04/26 06:39:31;;;;;;;18.40;12.37;;;;;;;9.76;78.73;99888.45;1830018;77;27353;-58
2024/04/26 06:41:57;;;;;;;18.35;11.38;;;;;;;10.00;79.19;99892.66;1830357;78;26195;-59
2024/04/26 06:44:23;;;;;;;21.85;11.83;;;;;;;10.16;75.78;99895.13;1829979;78;25416;-59
2024/04/26 06:46:49;;;;;;;18.42;11.20;;;;;;;10.26;75.05;99895.39;1829891;77;25526;-58
2024/04/26 06:49:19;;;;;;;17.35;10.48;;;;;;;10.42;75.67;99901.97;1829946;78;25397;-59
2024/04/26 06:51:49;;;;;;;16.77;10.25;;;;;;;10.65;75.38;99898.53;1829888;77;27472;-55
2024/04/26 06:54:15;;;;;;;14.93;9.48;;;;;;;10.97;75.95;99895.09;1829821;78;25787;-59
2024/04/26 06:56:41;;;;;;;15.25;9.70;;;;;;;11.30;74.78;99905.92;1829920;77;25371;-58
2024/04/26 06:59:09;;;;;;;14.60;9.33;;;;;;;11.48;71.84;99902.05;1829861;78;25745;-58
2024/04/26 07:01:35;;;;;;;15.00;9.33;;;;;;;11.75;72.21;99900.03;1829942;78;25557;-58
2024/04/26 07:04:03;;;;;;;13.53;9.00;;;;;;;11.99;70.91;99902.17;1829900;77;27804;-59
2024/04/26 07:06:29;;;;;;;12.98;9.28;;;;;;;12.18;68.85;99901.73;1829835;77;25497;-59
2024/04/26 07:08:55;;;;;;;14.00;9.48;;;;;;;12.39;68.79;99901.73;1829911;77;25568;-58
2024/04/26 07:11:22;;;;;;;12.90;8.78;;;;;;;12.69;69.07;99909.24;1829849;78;25538;-58
2024/04/26 07:13:50;;;;;;;12.10;8.63;;;;;;;12.94;66.52;99907.19;1829927;77;25566;-59
2024/04/26 07:16:18;;;;;;;15.95;9.43;;;;;;;13.01;63.69;99912.31;1814072;78;27522;-59
2024/04/26 07:18:45;;;;;;;12.93;9.73;;;;;;;13.08;61.57;99926.70;1829899;78;25564;-55
2024/04/26 07:21:12;;;;;;;14.40;9.90;;;;;;;13.15;60.76;99922.09;1829984;77;25578;-59
2024/04/26 07:23:38;;;;;;;15.30;10.65;;;;;;;13.25;59.39;99922.45;1829956;78;25568;-59
2024/04/26 07:26:06;;;;;;;17.07;10.43;;;;;;;13.32;59.07;99923.29;1829995;77;25581;-59
2024/04/26 07:28:33;;;;;;;14.95;10.55;;;;;;;13.39;59.99;99922.74;1829927;77;28119;-59
2024/04/26 07:31:01;;;;;;;16.50;10.55;;;;;;;13.59;59.90;99918.36;1829821;78;25556;-59
2024/04/26 07:33:29;;;;;;;17.27;10.70;;;;;;;13.86;60.71;99917.45;1829872;77;25521;-59
2024/04/26 07:35:55;;;;;;;19.77;10.55;;;;;;;14.07;59.19;99913.27;1829850;78;25623;-55
2024/04/26 07:38:21;;;;;;;14.18;10.35;;;;;;;14.42;58.25;99916.83;1829921;77;25536;-58
2024/04/26 07:40:47;;;;;;;17.35;10.18;;;;;;;14.64;59.08;99908.74;1829855;77;27798;-58
2024/04/26 07:43:13;;;;;;;18.23;10.25;;;;;;;14.98;58.96;99921.55;1829750;78;25641;-59
2024/04/26 07:45:39;;;;;;;14.98;10.05;;;;;;;15.12;55.23;99926.81;1829857;77;25378;-58
2024/04/26 07:48:10;;;;;;;12.23;8.95;;;;;;;15.22;53.92;99913.81;1829812;78;25438;-59
2024/04/26 07:50:39;;;;;;;13.85;8.63;;;;;;;15.31;51.40;99915.82;1829962;77;25379;-58
2024/04/26 07:53:05;;;;;;;13.22;7.87;;;;;;;15.35;49.79;99915.91;1829999;78;28035;-59
2024/04/26 07:55:31;;;;;;;12.37;7.55;;;;;;;15.54;51.87;99925.53;1829714;78;25571;-59
2024/04/26 07:57:57;;;;;;;11.55;7.90;;;;;;;15.76;52.03;99925.52;1829826;77;25533;-60
2024/04/26 08:00:24;;;;;;;12.25;7.35;;;;;;;15.87;47.86;99917.61;1829838;77;25601;-60
2024/04/26 08:02:50;;;;;;;11.60;7.35;;;;;;;15.97;49.71;99912.17;1829879;77;25545;-59
2024/04/26 08:05:16;;;;;;;9.20;6.53;;;;;;;16.10;49.12;99928.65;1829847;77;27800;-58
2024/04/26 08:07:42;;;;;;;10.50;6.35;;;;;;;16.23;49.36;99917.06;1829740;78;25392;-59
2024/04/26 08:10:10;;;;;;;7.03;5.40;;;;;;;16.74;50.72;99918.91;1829947;77;25534;-59
2024/04/26 08:12:36;;;;;;;9.18;5.87;;;;;;;17.01;47.84;99913.58;1829850;77;25507;-60
2024/04/26 08:15:05;;;;;;;7.67;5.72;;;;;;;17.14;47.19;99912.27;1829948;77;25565;-60
2024/04/26 08:17:31;;;;;;;9.00;5.03;;;;;;;17.18;47.23;99916.66;1829997;78;28273;-60
2024/04/26 08:19:58;;;;;;;9.00;4.83;;;;;;;17.27;45.96;99912.32;1829743;78;25697;-61
2024/04/26 08:22:24;;;;;;;6.30;4.50;;;;;;;17.16;43.46;99916.80;1829817;78;25438;-61
2024/04/26 08:24:50;;;;;;;7.08;4.95;;;;;;;17.08;42.51;99913.16;1829894;77;25537;-62
2024/04/26 08:27:16;;;;;;;8.88;4.67;;;;;;;17.20;43.80;99920.40;1829977;77;25556;-60
2024/04/26 08:29:46;;;;;;;6.15;4.87;;;;;;;17.31;43.14;99915.89;1813711;78;28112;-60
2024/04/26 08:32:14;;;;;;;8.33;5.22;;;;;;;17.51;42.85;99908.44;1828651;77;25637;-60
2024/04/26 08:34:43;;;;;;;7.22;3.95;;;;;;;17.58;41.89;99913.82;1823736;78;25586;-61
2024/04/26 08:37:10;;;;;;;7.95;4.78;;;;;;;17.66;42.05;99904.00;1823823;78;26192;-60
2024/04/26 08:39:39;;;;;;;10.30;4.37;;;;;;;17.91;41.98;99907.71;1823754;78;25439;-60
2024/04/26 08:42:07;;;;;;;8.23;4.58;;;;;;;18.24;43.11;99901.55;1823091;78;27363;-60
2024/04/26 08:44:36;;;;;;;6.67;4.72;;;;;;;18.61;41.52;99893.20;1823781;78;25384;-60
2024/04/26 08:47:06;;;;;;;7.40;4.87;;;;;;;18.85;40.67;99891.97;1823736;78;25649;-60
2024/04/26 08:49:39;;;;;;;6.08;4.28;;;;;;;19.07;41.04;99899.03;1823737;78;25569;-60
2024/04/26 08:52:08;;;;;;;4.03;3.60;;;;;;;18.92;37.97;99886.56;1823737;78;25614;-60
2024/04/26 08:54:36;;;;;;;6.42;3.85;;;;;;;18.91;38.61;99906.11;1823873;78;27436;-60
2024/04/26 08:57:05;;;;;;;4.67;3.52;;;;;;;19.09;37.98;99890.65;1823743;78;25415;-60
2024/04/26 08:59:50;;;;;;;5.12;3.67;;;;;;;19.19;38.54;99904.27;1823891;78;25591;-60
2024/04/26 09:02:19;;;;;;;4.65;3.92;;;;;;;19.31;38.09;99890.86;1823768;78;25434;-60
2024/04/26 09:04:49;;;;;;;8.33;4.40;;;;;;;19.64;35.62;99902.30;1823945;78;25404;-60
2024/04/26 09:07:15;;;;;;;6.83;3.65;;;;;;;19.58;37.83;99897.75;1823747;78;28131;-59
2024/04/26 09:09:51;;;;;;;5.60;3.55;;;;;;;20.12;37.20;99899.50;1823853;78;30136;-59
2024/04/26 09:12:19;;;;;;;4.90;3.47;;;;;;;20.00;36.33;99908.06;1821913;78;25470;-58
2024/04/26 09:14:45;;;;;;;4.92;3.45;;;;;;;19.47;35.83;99899.61;1823756;78;25546;-59
2024/04/26 09:17:12;;;;;;;4.95;3.45;;;;;;;18.74;35.30;99910.20;1823828;78;25600;-58
2024/04/26 09:19:40;;;;;;;4.87;3.40;;;;;;;18.47;37.34;99897.93;1823810;78;28331;-57
2024/04/26 09:22:08;;;;;;;5.92;4.62;;;;;;;18.72;37.08;99894.72;1823631;77;25610;-57
2024/04/26 09:24:37;;;;;;;4.42;3.10;;;;;;;18.47;36.12;99902.84;1823727;78;25584;-55
2024/04/26 09:27:07;;;;;;;8.33;3.70;;;;;;;17.87;35.58;99905.52;1823838;78;25451;-57
2024/04/26 09:29:35;;;;;;;5.17;3.60;;;;;;;17.29;37.14;99901.03;1823886;78;25517;-54
2024/04/26 09:32:07;;;;;;;9.60;3.12;;;;;;;17.38;38.23;99900.20;1823660;78;27484;-52
2024/04/26 09:34:36;;;;;;;4.97;3.42;;;;;;;17.40;37.90;99902.02;1823109;78;25527;-55
2024/04/26 09:37:10;;;;;;;7.08;3.05;;;;;;;17.14;38.22;99891.78;1822990;78;25626;-56
2024/04/26 09:39:40;;;;;;;5.40;3.33;;;;;;;16.72;38.32;99897.97;1823700;78;25526;-53
2024/04/26 09:42:10;;;;;;;13.20;3.65;;;;;;;16.32;38.38;99888.20;1823691;78;25443;-56
2024/04/26 09:44:40;;;;;;;4.45;3.08;;;;;;;15.94;38.79;99897.90;1823710;78;27496;-55
2024/04/26 09:47:10;;;;;;;6.65;3.60;;;;;;;16.29;40.76;99892.42;1803191;78;25576;-56
2024/04/26 09:49:40;;;;;;;5.80;3.62;;;;;;;17.33;41.70;99896.40;1803050;78;25611;-55
2024/04/26 09:52:06;;;;;;;;;;;;;;;18.20;40.80;99884.30;1824829;78;25650;-53
2024/04/26 09:54:34;;;;;;;5.28;3.65;;;;;;;18.58;38.10;99885.17;1822266;78;25731;-53
2024/04/26 09:57:00;;;;;;;3.90;2.87;;;;;;;18.38;36.75;99878.27;1822465;78;27485;-52
2024/04/26 09:59:27;;;;;;;2.75;2.40;;;;;;;18.18;36.22;99897.55;1822209;77;25672;-56
2024/04/26 10:01:54;;;;;;;5.00;2.77;;;;;;;17.78;35.63;99882.50;1822135;78;25979;-56
2024/04/26 10:04:21;;;;;;;3.58;2.47;;;;;;;17.60;36.55;99889.63;1822553;78;25644;-55
2024/04/26 10:06:47;;;;;;;2.83;2.35;;;;;;;17.63;35.35;99898.47;1823512;78;25586;-52
2024/04/26 10:09:13;;;;;;;4.15;2.95;;;;;;;17.54;35.74;99877.63;1823620;78;28476;-54
2024/04/26 10:11:53;;;;;;;3.47;2.70;;;;;;;17.91;36.19;99878.42;1823563;78;25472;-54
2024/04/26 10:14:32;;;;;;;5.37;2.60;;;;;;;18.37;34.72;99887.63;1823643;78;25349;-54
2024/04/26 10:17:13;;;;;;;3.00;2.15;;;;;;;18.82;35.16;99881.72;1823690;78;25483;-52
2024/04/26 10:19:43;;;;;;;3.35;2.65;;;;;;;19.25;36.83;99867.09;1823826;78;25535;-56
2024/04/26 10:22:13;;;;;;;3.10;2.20;;;;;;;19.96;34.99;99875.70;1823894;78;27377;-53
2024/04/26 10:24:47;;;;;;;4.83;2.55;;;;;;;20.00;32.67;99872.37;1823815;78;25520;-53
2024/04/26 10:27:17;;;;;;;3.37;2.60;;;;;;;20.14;33.55;99861.50;1823610;78;25549;-53
2024/04/26 10:29:45;;;;;;;3.80;2.10;;;;;;;20.72;32.14;99878.22;1822046;78;26125;-57
2024/04/26 10:32:14;;;;;;;3.05;2.45;;;;;;;20.88;33.20;99870.42;1823706;77;25560;-54
2024/04/26 10:34:40;;;;;;;3.60;2.45;;;;;;;20.61;31.54;99873.27;1829420;78;27457;-56
2024/04/26 10:37:16;;;;;;;2.92;2.25;;;;;;;20.42;30.66;99861.42;1829827;77;25780;-53
2024/04/26 10:39:46;;;;;;;3.60;2.05;;;;;;;20.52;31.90;99864.80;1829961;77;25386;-56
2024/04/26 10:42:13;;;;;;;2.50;2.17;;;;;;;20.14;30.97;99869.73;1829887;78;25511;-56
2024/04/26 10:44:44;;;;;;;2.70;2.10;;;;;;;19.52;31.31;99869.09;1829919;77;25550;-56
2024/04/26 10:47:11;;;;;;;9.15;8.23;;;;;;;19.39;32.00;99868.61;1830034;77;27484;-58
2024/04/26 10:49:38;;;;;;;3.27;2.52;;;;;;;19.49;31.87;99869.06;1829928;78;25534;-57
2024/04/26 10:52:08;;;;;;;4.80;2.47;;;;;;;19.38;31.84;99861.53;1829907;77;25572;-53
2024/04/26 10:54:34;;;;;;;4.12;2.12;;;;;;;18.90;31.12;99869.71;1829831;78;26372;-55
2024/04/26 10:57:02;;;;;;;4.50;2.10;;;;;;;18.48;32.00;99877.61;1829907;77;25400;-52
2024/04/26 10:59:30;;;;;;;2.92;2.15;;;;;;;18.04;32.04;99872.73;1829899;78;28494;-53
2024/04/26 11:02:00;;;;;;;5.30;2.05;;;;;;;17.63;31.85;99876.59;1829914;77;25538;-56
2024/04/26 11:04:35;;;;;;;2.90;1.60;;;;;;;17.79;32.95;99871.75;1829923;77;25449;-53
2024/04/26 11:06:57;;;;;;;2.45;1.95;;;;;;;18.36;34.25;99865.54;1827772;77;25619;-55
2024/04/26 11:09:23;;;;;;;3.25;2.00;;;;;;;18.89;33.43;99859.91;1829904;78;25438;-53
2024/04/26 11:11:57;;;;;;;4.87;2.10;;;;;;;18.99;32.68;99866.08;1829875;78;28170;-54
2024/04/26 11:14:28;;;;;;;2.90;1.50;;;;;;;18.69;31.96;99868.07;1829865;78;26179;-56
2024/04/26 11:16:57;;;;;;;2.52;2.02;;;;;;;18.26;32.45;99857.39;1829825;78;25349;-54
2024/04/26 11:19:32;;;;;;;2.35;1.82;;;;;;;17.99;32.81;99858.78;1829824;78;25578;-52
2024/04/26 11:22:00;;;;;;;3.20;1.82;;;;;;;18.00;33.56;99866.44;1829981;77;25613;-53
2024/04/26 11:24:26;;;;;;;1.98;1.52;;;;;;;18.60;34.74;99854.08;1829860;77;28496;-56
2024/04/26 11:26:56;;;;;;;2.83;1.30;;;;;;;19.53;35.61;99848.73;1829782;78;25451;-56
2024/04/26 11:29:24;;;;;;;2.45;1.50;;;;;;;20.28;28.43;99884.71;1829876;77;25450;-59
2024/04/26 11:31:50;;;;;;;1.80;1.42;;;;;;;19.93;30.36;99863.52;1829794;77;26441;-59
2024/04/26 11:34:18;;;;;;;1.87;1.30;;;;;;;19.36;29.74;99852.12;1826040;77;25515;-59
2024/04/26 11:36:47;;;;;;;1.20;1.10;;;;;;;19.01;30.58;99848.67;1823783;78;27492;-59
2024/04/26 11:39:15;;;;;;;2.20;1.20;;;;;;;19.28;29.19;99857.34;1823675;78;25371;-59
2024/04/26 11:41:41;;;;;;;2.58;1.17;;;;;;;19.51;30.55;99856.55;1823759;78;25612;-60
2024/04/26 11:44:13;;;;;;;1.52;1.10;;;;;;;20.04;30.54;99847.70;1823684;77;25434;-59
2024/04/26 11:46:36;;;;;;;1.57;1.22;;;;;;;20.31;29.52;99866.88;1821221;78;25352;-59
2024/04/26 11:49:02;;;;;;;1.35;1.07;;;;;;;20.10;29.01;99859.30;1823852;78;28418;-58
2024/04/26 11:51:31;;;;;;;2.15;1.10;;;;;;;20.30;28.19;99866.66;1823638;78;26457;-59
2024/04/26 11:54:01;;;;;;;1.70;1.10;;;;;;;20.50;29.12;99869.11;1823727;78;25538;-57
2024/04/26 11:56:27;;;;;;;2.00;1.77;;;;;;;20.26;27.90;99871.93;1823840;78;26161;-59
2024/04/26 11:58:55;;;;;;;6.92;4.70;;;;;;;19.66;28.53;99873.11;1823913;78;25445;-57
2024/04/26 12:01:21;;;;;;;5.20;1.42;;;;;;;19.21;28.65;99870.41;1823197;78;27860;-56
2024/04/26 12:03:49;;;;;;;1.10;0.82;;;;;;;18.83;28.02;99878.64;1823624;78;25758;-54
2024/04/26 12:06:15;;;;;;;1.77;0.82;;;;;;;18.33;27.87;99874.48;1823748;78;25518;-53
2024/04/26 12:08:43;;;;;;;1.42;1.00;;;;;;;17.99;28.85;99894.35;1823682;78;26491;-54
2024/04/26 12:11:12;;;;;;;1.50;1.17;;;;;;;17.74;28.56;99878.34;1823815;77;25608;-56
2024/04/26 12:13:45;;;;;;;1.80;1.22;;;;;;;18.04;29.28;99880.36;1823742;78;27488;-53
2024/04/26 12:16:14;;;;;;;1.87;1.20;;;;;;;18.02;28.85;99886.00;1823673;78;25359;-55
2024/04/26 12:18:42;;;;;;;2.02;1.40;;;;;;;17.80;29.43;99878.03;1823819;78;25552;-55
2024/04/26 12:21:23;;;;;;;1.65;1.17;;;;;;;17.83;29.07;99889.61;1823666;78;25608;-54
2024/04/26 12:23:48;;;;;;;1.72;1.00;;;;;;;17.92;29.58;99873.73;1822563;78;25451;-52
2024/04/26 12:26:21;;;;;;;1.98;1.00;;;;;;;18.11;29.61;99872.83;1823716;78;27351;-51
2024/04/26 12:28:53;;;;;;;1.52;1.00;;;;;;;18.43;29.14;99873.84;1823654;78;26136;-52
2024/04/26 12:31:23;;;;;;;2.83;1.42;;;;;;;18.54;28.77;99868.48;1823738;78;25536;-52
2024/04/26 12:33:51;;;;;;;1.50;1.05;;;;;;;18.54;28.66;99867.92;1825239;78;25536;-53
2024/04/26 12:36:17;;;;;;;1.98;1.30;;;;;;;18.69;29.30;99877.66;1829890;77;25581;-55
2024/04/26 12:38:43;;;;;;;1.52;1.27;;;;;;;19.25;28.85;99869.84;1829810;78;27444;-52
2024/04/26 12:41:11;;;;;;;2.02;1.30;;;;;;;19.14;27.14;99869.75;1829708;78;25620;-55
2024/04/26 12:43:39;;;;;;;1.70;1.30;;;;;;;18.71;26.98;99872.03;1829780;77;25598;-52
2024/04/26 12:46:14;;;;;;;2.85;1.37;;;;;;;18.59;26.71;99864.84;1829840;78;26038;-52
2024/04/26 12:48:40;;;;;;;3.42;1.45;;;;;;;18.44;27.76;99863.88;1829906;77;25536;-54
2024/04/26 12:51:07;;;;;;;4.55;1.52;;;;;;;18.58;28.40;99871.47;1829800;78;28505;-54
2024/04/26 12:53:33;;;;;;;1.75;1.32;;;;;;;18.77;27.79;99872.47;1829733;78;25544;-53
2024/04/26 12:55:59;;;;;;;2.70;1.45;;;;;;;19.16;28.36;99870.74;1829864;78;25615;-52
2024/04/26 12:58:25;;;;;;;3.08;1.52;;;;;;;19.38;28.04;99877.98;1829820;77;25587;-52
2024/04/26 13:00:51;;;;;;;2.67;1.40;;;;;;;19.09;26.90;99879.69;1829894;77;25578;-53
2024/04/26 13:03:20;;;;;;;3.52;1.20;;;;;;;18.72;26.73;99900.20;1829935;78;27844;-53
2024/04/26 13:05:48;;;;;;;4.70;1.30;;;;;;;18.28;27.61;99887.91;1829705;77;26110;-52
2024/04/26 13:08:19;;;;;;;4.47;1.47;;;;;;;17.93;27.53;99897.22;1829800;77;25677;-53
2024/04/26 13:10:45;;;;;;;6.40;1.95;;;;;;;17.61;28.28;99891.22;1829829;78;25496;-54
2024/04/26 13:13:14;;;;;;;32.38;25.88;;;;;;;17.40;28.72;99893.00;1829793;78;25418;-60
2024/04/26 13:15:41;;;;;;;4.75;2.12;;;;;;;17.26;29.10;99897.06;1829765;78;28350;-57
2024/04/26 13:18:07;;;;;;;2.42;1.47;;;;;;;17.18;28.87;99892.65;1828370;78;25718;-53
2024/04/26 13:20:34;;;;;;;2.15;1.35;;;;;;;17.06;28.75;99901.80;1828291;78;25965;-54
2024/04/26 13:23:03;;;;;;;2.55;1.70;;;;;;;17.09;29.29;99897.55;1829635;77;25434;-54
2024/04/26 13:25:28;;;;;;;5.97;1.80;;;;;;;17.14;29.23;99885.73;1829188;77;25639;-56
2024/04/26 13:27:55;;;;;;;2.02;1.60;;;;;;;17.12;29.08;99899.55;1829842;77;27490;-55
2024/04/26 13:30:22;;;;;;;2.75;1.55;;;;;;;16.93;29.14;99895.70;1809544;78;25956;-54
2024/04/26 13:32:51;;;;;;;3.90;1.60;;;;;;;16.83;29.61;99899.57;1829718;77;25576;-53
2024/04/26 13:35:17;;;;;;;3.83;1.80;;;;;;;16.70;29.48;99898.36;1829653;77;25616;-53
2024/04/26 13:37:44;;;;;;;2.20;1.50;;;;;;;16.59;29.47;99902.22;1829782;78;25587;-54
2024/04/26 13:40:12;;;;;;;4.62;1.67;;;;;;;16.48;30.03;99903.96;1829857;77;27794;-55
2024/04/26 13:42:38;;;;;;;2.27;1.50;;;;;;;16.43;30.50;99909.70;1829722;78;25450;-52
2024/04/26 13:45:07;;;;;;;2.62;1.65;;;;;;;16.38;29.95;99895.75;1829821;78;25610;-53
2024/04/26 13:47:34;;;;;;;3.05;1.60;;;;;;;16.40;30.03;99899.49;1829767;77;25816;-53
2024/04/26 13:50:01;;;;;;;35.90;24.00;;;;;;;16.43;30.56;99898.20;1829848;77;25531;-60
2024/04/26 13:52:28;;;;;;;4.58;3.33;;;;;;;16.47;30.55;99902.95;1829744;78;27895;-57
2024/04/26 13:54:55;;;;;;;2.27;1.57;;;;;;;16.43;30.23;99915.94;1829842;77;25404;-59
2024/04/26 13:57:23;;;;;;;2.45;1.60;;;;;;;16.30;29.91;99894.59;1830051;78;25414;-55
2024/04/26 13:59:50;;;;;;;2.40;1.55;;;;;;;16.15;30.49;99905.19;1829953;77;25819;-55
2024/04/26 14:02:23;;;;;;;2.15;1.70;;;;;;;16.14;31.13;99902.81;1829883;77;25604;-54
2024/04/26 14:04:52;;;;;;;2.75;1.55;;;;;;;16.18;30.40;99906.42;1829952;77;27297;-55
2024/04/26 14:07:20;;;;;;;2.45;1.85;;;;;;;16.12;30.50;99915.44;1829796;77;25942;-61
2024/04/26 14:09:47;;;;;;;3.58;2.67;;;;;;;16.02;30.34;99908.62;1829923;77;25333;-59
2024/04/26 14:12:13;;;;;;;3.52;1.92;;;;;;;16.01;30.72;99909.75;1829865;78;25425;-59
2024/04/26 14:14:39;;;;;;;1.85;1.52;;;;;;;15.98;31.36;99913.18;1829882;77;25614;-59
2024/04/26 14:17:06;;;;;;;3.60;1.70;;;;;;;16.02;31.37;99909.98;1829874;77;27765;-59
2024/04/26 14:19:38;;;;;;;4.70;1.82;;;;;;;16.06;31.06;99910.84;1829808;77;25358;-58
2024/04/26 14:22:04;;;;;;;2.50;1.45;;;;;;;16.02;30.67;99912.70;1829884;77;25439;-58
2024/04/26 14:24:38;;;;;;;3.27;1.60;;;;;;;15.89;30.41;99912.59;1829814;77;25814;-58
2024/04/26 14:27:09;;;;;;;4.65;1.60;;;;;;;15.79;31.14;99911.19;1829949;77;25446;-59
2024/04/26 14:29:35;;;;;;;3.72;1.82;;;;;;;15.72;31.09;99905.54;1829909;77;27444;-59
2024/04/26 14:32:06;;;;;;;5.35;1.60;;;;;;;15.64;31.58;99906.51;1829826;78;25418;-58
2024/04/26 14:34:32;;;;;;;2.17;1.57;;;;;;;15.60;31.75;99912.45;1829764;77;25421;-59
2024/04/26 14:37:00;;;;;;;12.78;7.03;;;;;;;15.55;31.94;99912.14;1829932;77;25563;-60
2024/04/26 14:39:31;;;;;;;12.23;9.60;;;;;;;15.58;32.25;99916.89;1829935;77;25396;-60
2024/04/26 14:41:55;;;;;;;4.75;2.80;;;;;;;15.64;32.32;99913.32;1830548;77;27478;-59
2024/04/26 14:44:23;;;;;;;3.05;1.80;;;;;;;15.74;32.23;99910.64;1829956;77;25677;-52
2024/04/26 14:46:49;;;;;;;2.52;1.40;;;;;;;15.79;32.19;99911.19;1829862;78;25521;-52
2024/04/26 14:49:16;;;;;;;3.92;1.57;;;;;;;15.81;31.98;99909.47;1829789;78;25843;-54
2024/04/26 14:51:42;;;;;;;2.67;1.67;;;;;;;15.82;32.17;99913.80;1829894;77;25385;-53
2024/04/26 14:54:08;;;;;;;1.98;1.35;;;;;;;15.80;32.22;99907.33;1829842;78;27470;-56
2024/04/26 14:56:37;;;;;;;2.30;1.42;;;;;;;15.80;32.19;99914.14;1829862;77;25637;-51
2024/04/26 14:59:03;;;;;;;2.22;1.55;;;;;;;15.77;32.52;99903.16;1829902;77;25591;-53
2024/04/26 15:01:32;;;;;;;2.05;1.45;;;;;;;15.76;32.26;99907.02;1829807;77;25784;-52
2024/04/26 15:03:59;;;;;;;2.92;1.50;;;;;;;15.74;32.61;99912.79;1830001;77;25599;-52
2024/04/26 15:06:26;;;;;;;3.10;1.70;;;;;;;15.72;32.39;99909.63;1830000;77;28066;-52
2024/04/26 15:08:56;;;;;;;1.90;1.60;;;;;;;15.65;32.62;99916.28;1829914;77;25688;-58
2024/04/26 15:11:25;;;;;;;2.83;1.35;;;;;;;15.56;32.23;99912.92;1830099;77;25542;-60
2024/04/26 15:13:54;;;;;;;3.12;1.67;;;;;;;15.46;32.29;99912.86;1829994;77;26429;-60
2024/04/26 15:16:22;;;;;;;2.95;1.55;;;;;;;15.38;32.44;99913.27;1829975;77;25624;-59
2024/04/26 15:19:10;;;;;;;2.02;1.50;;;;;;;15.30;32.60;99914.22;1829969;78;27473;-60
2024/04/26 15:21:39;;;;;;;2.77;1.45;;;;;;;15.25;32.56;99919.94;1640544;87;25842;-59
2024/04/26 15:24:06;;;;;;;3.75;1.60;;;;;;;15.16;32.34;99916.01;1585913;90;25766;-55
2024/04/26 15:26:38;;;;;;;2.27;1.72;;;;;;;15.09;33.25;99918.55;1611232;89;25837;-55
2024/04/26 15:29:06;;;;;;;4.08;1.40;;;;;;;15.09;33.11;99917.19;1584598;90;25500;-51
2024/04/26 15:31:32;;;;;;;1.77;1.40;;;;;;;15.07;33.13;99916.75;1611094;89;28057;-54
2024/04/26 15:33:59;;;;;;;1.95;1.20;;;;;;;15.07;33.17;99917.53;1583325;90;25864;-53
2024/04/26 15:36:25;;;;;;;2.92;1.50;;;;;;;15.04;33.21;99918.22;1611166;89;25608;-51
2024/04/26 15:38:53;;;;;;;1.55;1.25;;;;;;;14.99;33.07;99913.61;1584438;90;25924;-53
2024/04/26 15:41:21;;;;;;;2.10;1.50;;;;;;;14.93;33.37;99915.77;1611206;88;25685;-55
2024/04/26 15:43:48;;;;;;;2.55;1.90;;;;;;;14.93;33.39;99923.94;1584495;90;27842;-51
2024/04/26 15:46:15;;;;;;;1.90;1.40;;;;;;;14.88;33.22;99921.47;1611048;89;25984;-49
2024/04/26 15:48:41;;;;;;;8.45;2.00;;;;;;;14.83;33.61;99917.63;1584503;90;25646;-50
2024/04/26 15:51:09;;;;;;;4.08;1.65;;;;;;;14.82;33.76;99918.20;1611127;89;26064;-62
2024/04/26 15:53:37;;;;;;;18.25;13.62;;;;;;;14.84;33.76;99913.20;1584639;90;25717;-60
2024/04/26 15:56:05;;;;;;;2.87;1.82;;;;;;;14.86;34.10;99916.36;1611192;89;28672;-55
2024/04/26 15:58:32;;;;;;;2.95;1.98;;;;;;;14.85;33.86;99911.30;1617650;86;25850;-54
2024/04/26 16:00:59;;;;;;;2.90;1.87;;;;;;;14.84;34.23;99912.42;1683907;85;25531;-55
2024/04/26 16:03:25;;;;;;;6.75;2.20;;;;;;;14.84;34.45;99913.20;1683854;85;25663;-55
2024/04/26 16:05:52;;;;;;;2.55;1.75;;;;;;;14.83;34.67;99908.91;1683876;85;25485;-55
2024/04/26 16:08:19;;;;;;;2.25;1.70;;;;;;;14.87;34.87;99918.54;1730295;82;28070;-52
2024/04/26 16:10:46;;;;;;;3.30;1.72;;;;;;;14.89;34.88;99914.89;1730305;82;25424;-52
2024/04/26 16:13:12;;;;;;;2.45;1.90;;;;;;;14.92;34.83;99915.56;1730375;82;25567;-52
2024/04/26 16:15:39;;;;;;;4.42;2.08;;;;;;;14.91;34.88;99910.70;1730187;82;25842;-52
2024/04/26 16:18:05;;;;;;;3.50;1.47;;;;;;;14.87;34.90;99911.16;1730313;82;25598;-54
2024/04/26 16:20:31;;;;;;;4.15;1.60;;;;;;;14.83;34.98;99914.36;1728368;82;27486;-54
2024/04/26 16:22:57;;;;;;;3.02;1.60;;;;;;;14.81;35.31;99915.83;1726572;83;25447;-52
2024/04/26 16:25:23;;;;;;;2.30;1.60;;;;;;;14.78;35.25;99913.24;1726634;82;25517;-54
2024/04/26 16:27:49;;;;;;;4.55;1.62;;;;;;;14.78;35.17;99911.07;1726584;83;26103;-53
2024/04/26 16:30:16;;;;;;;3.00;1.70;;;;;;;14.70;35.27;99907.38;1726707;83;25614;-52
2024/04/26 16:32:42;;;;;;;2.65;1.40;;;;;;;14.63;35.43;99909.90;1726631;83;28035;-51
2024/04/26 16:35:08;;;;;;;4.75;1.50;;;;;;;14.58;35.76;99916.34;1726519;83;25438;-51
2024/04/26 16:37:34;;;;;;;3.15;1.57;;;;;;;14.53;35.94;99920.66;1726657;83;25721;-51
2024/04/26 16:40:04;;;;;;;3.27;1.70;;;;;;;14.48;36.14;99917.60;1726551;83;26512;-56
2024/04/26 16:42:33;;;;;;;3.25;1.37;;;;;;;14.41;36.17;99920.13;1726906;83;25428;-56
2024/04/26 16:44:59;;;;;;;2.85;1.60;;;;;;;14.32;36.28;99921.62;1726193;83;28204;-50
2024/04/26 16:47:25;;;;;;;2.10;1.60;;;;;;;14.24;36.23;99924.47;1726536;83;25399;-51
2024/04/26 16:49:51;;;;;;;4.50;1.60;;;;;;;14.16;36.67;99918.00;1726657;83;25556;-55
2024/04/26 16:52:20;;;;;;;3.25;1.50;;;;;;;14.08;37.04;99929.80;1726673;83;25556;-54
2024/04/26 16:54:49;;;;;;;3.30;1.32;;;;;;;13.97;37.00;99927.53;1726672;83;25607;-52
2024/04/26 16:57:16;;;;;;;3.10;2.10;;;;;;;13.89;37.21;99926.30;1726629;81;27635;-55
2024/04/26 16:59:44;;;;;;;2.65;1.70;;;;;;;13.80;37.52;99932.63;1726488;83;25521;-54
2024/04/26 17:02:14;;;;;;;2.42;1.60;;;;;;;13.73;37.84;99935.13;1726541;83;25453;-61
2024/04/26 17:04:42;;;;;;;8.83;6.30;;;;;;;13.65;38.00;99934.66;1726680;83;26374;-59
2024/04/26 17:07:13;;;;;;;8.38;3.98;;;;;;;13.59;38.13;99934.67;1726675;83;25404;-52